createdAt,value
2019-05-11T00:00:37.513Z,13.92
2019-05-11T00:01:37.492Z,13.88
2019-05-11T00:02:37.504Z,13.92
2019-05-11T00:03:37.511Z,13.83
2019-05-11T00:04:37.520Z,13.99
2019-05-11T00:05:37.529Z,13.92
2019-05-11T00:06:37.534Z,13.96
2019-05-11T00:07:37.541Z,13.99
2019-05-11T00:08:37.553Z,13.99
2019-05-11T00:09:37.559Z,13.99
2019-05-11T00:10:37.565Z,13.92
2019-05-11T00:11:37.579Z,13.89
2019-05-11T00:12:37.582Z,13.76
2019-05-11T00:13:37.590Z,13.76
2019-05-11T00:14:37.607Z,13.76
2019-05-11T00:15:37.606Z,13.76
2019-05-11T00:16:37.616Z,13.69
2019-05-11T00:17:37.624Z,13.63
2019-05-11T00:18:37.636Z,13.65
2019-05-11T00:19:37.641Z,13.54
2019-05-11T00:20:37.650Z,13.46
2019-05-11T00:21:37.654Z,13.40
2019-05-11T00:22:37.673Z,13.47
2019-05-11T00:23:37.674Z,13.25
2019-05-11T00:24:37.676Z,13.20
2019-05-11T00:25:37.687Z,13.30
2019-05-11T00:26:37.695Z,13.21
2019-05-11T00:27:37.702Z,13.06
2019-05-11T00:28:37.713Z,13.14
2019-05-11T00:29:37.724Z,13.06
2019-05-11T00:30:37.725Z,13.03
2019-05-11T00:31:37.733Z,12.96
2019-05-11T00:32:37.744Z,12.93
2019-05-11T00:33:37.751Z,12.99
2019-05-11T00:34:37.757Z,12.92
2019-05-11T00:35:37.766Z,12.97
2019-05-11T00:36:37.772Z,12.96
2019-05-11T00:37:37.794Z,12.89
2019-05-11T00:38:37.789Z,12.97
2019-05-11T00:39:37.794Z,12.96
2019-05-11T00:40:37.806Z,13.03
2019-05-11T00:41:37.814Z,12.97
2019-05-11T00:42:37.821Z,12.99
2019-05-11T00:43:37.828Z,12.97
2019-05-11T00:44:37.841Z,12.97
2019-05-11T00:45:37.846Z,12.95
2019-05-11T00:46:37.863Z,12.88
2019-05-11T00:47:37.859Z,12.99
2019-05-11T00:48:37.894Z,12.95
2019-05-11T00:49:37.877Z,12.88
2019-05-11T00:50:39.959Z,12.85
2019-05-11T00:51:37.892Z,12.89
2019-05-11T00:52:37.900Z,12.77
2019-05-11T00:53:37.908Z,12.77
2019-05-11T00:54:37.920Z,12.62
2019-05-11T00:55:37.930Z,12.52
2019-05-11T00:56:37.935Z,12.60
2019-05-11T00:57:37.944Z,12.64
2019-05-11T00:58:37.948Z,12.51
2019-05-11T00:59:37.957Z,12.57
2019-05-11T01:00:37.966Z,12.60
2019-05-11T01:01:37.973Z,12.54
2019-05-11T01:02:37.994Z,12.57
2019-05-11T01:03:37.988Z,12.69
2019-05-11T01:04:37.995Z,12.59
2019-05-11T01:05:38.027Z,12.57
2019-05-11T01:06:38.022Z,12.57
2019-05-11T01:07:38.036Z,12.52
2019-05-11T01:08:38.026Z,12.48
2019-05-11T01:09:38.039Z,12.52
2019-05-11T01:10:41.999Z,12.45
2019-05-11T01:11:38.049Z,12.42
2019-05-11T01:12:38.062Z,12.44
2019-05-11T01:13:38.064Z,12.42
2019-05-11T01:14:38.074Z,12.41
2019-05-11T01:15:38.079Z,12.38
2019-05-11T01:16:38.089Z,12.41
2019-05-11T01:17:38.101Z,12.34
2019-05-11T01:18:38.107Z,12.42
2019-05-11T01:19:38.111Z,12.33
2019-05-11T01:20:38.128Z,12.39
2019-05-11T01:21:38.128Z,12.41
2019-05-11T01:22:38.135Z,12.39
2019-05-11T01:23:38.145Z,12.37
2019-05-11T01:24:38.151Z,12.26
2019-05-11T01:25:38.158Z,12.38
2019-05-11T01:26:38.172Z,12.38
2019-05-11T01:27:38.174Z,12.41
2019-05-11T01:28:38.186Z,12.30
2019-05-11T01:29:38.197Z,12.38
2019-05-11T01:30:38.861Z,12.39
2019-05-11T01:31:38.203Z,12.34
2019-05-11T01:32:38.226Z,12.41
2019-05-11T01:33:38.221Z,12.44
2019-05-11T01:34:38.252Z,12.44
2019-05-11T01:35:38.258Z,12.54
2019-05-11T01:36:38.242Z,12.54
2019-05-11T01:37:38.252Z,12.52
2019-05-11T01:38:38.259Z,12.56
2019-05-11T01:39:38.269Z,12.54
2019-05-11T01:40:38.275Z,12.56
2019-05-11T01:41:38.292Z,12.59
2019-05-11T01:42:38.289Z,12.63
2019-05-11T01:43:38.298Z,12.45
2019-05-11T01:44:38.309Z,12.52
2019-05-11T01:45:38.313Z,12.59
2019-05-11T01:46:38.330Z,12.56
2019-05-11T01:47:38.328Z,12.59
2019-05-11T01:48:38.333Z,12.57
2019-05-11T01:49:38.342Z,12.52
2019-05-11T01:50:38.350Z,12.51
2019-05-11T01:51:38.347Z,12.54
2019-05-11T01:52:38.380Z,12.64
2019-05-11T01:53:38.371Z,12.66
2019-05-11T01:54:38.373Z,12.63
2019-05-11T01:55:38.375Z,12.74
2019-05-11T01:56:38.398Z,12.66
2019-05-11T01:57:38.393Z,12.74
2019-05-11T01:58:38.412Z,12.71
2019-05-11T01:59:38.407Z,12.67
2019-05-11T02:00:38.424Z,12.77
2019-05-11T02:01:38.426Z,12.79
2019-05-11T02:02:38.441Z,12.71
2019-05-11T02:03:38.438Z,12.75
2019-05-11T02:04:38.455Z,12.71
2019-05-11T02:05:38.460Z,12.70
2019-05-11T02:06:38.473Z,12.71
2019-05-11T02:07:38.468Z,12.74
2019-05-11T02:08:38.479Z,12.74
2019-05-11T02:09:38.487Z,12.74
2019-05-11T02:10:38.495Z,12.64
2019-05-11T02:11:38.503Z,12.64
2019-05-11T02:12:38.508Z,12.63
2019-05-11T02:13:38.578Z,12.71
2019-05-11T02:14:38.538Z,12.74
2019-05-11T02:15:38.537Z,12.79
2019-05-11T02:16:38.543Z,12.71
2019-05-11T02:17:38.547Z,12.75
2019-05-11T02:18:38.557Z,12.75
2019-05-11T02:19:38.561Z,12.70
2019-05-11T02:20:38.573Z,12.79
2019-05-11T02:21:38.581Z,12.70
2019-05-11T02:22:38.591Z,12.75
2019-05-11T02:23:38.597Z,12.71
2019-05-11T02:24:38.603Z,12.79
2019-05-11T02:25:38.612Z,12.71
2019-05-11T02:26:38.618Z,12.74
2019-05-11T02:27:38.628Z,12.63
2019-05-11T02:28:38.636Z,12.63
2019-05-11T02:29:41.453Z,12.63
2019-05-11T02:30:38.653Z,12.70
2019-05-11T02:31:38.659Z,12.62
2019-05-11T02:32:38.667Z,12.62
2019-05-11T02:33:38.676Z,12.69
2019-05-11T02:34:38.683Z,12.67
2019-05-11T02:35:38.689Z,12.70
2019-05-11T02:36:38.699Z,12.82
2019-05-11T02:37:38.711Z,12.75
2019-05-11T02:38:38.715Z,12.87
2019-05-11T02:39:38.721Z,12.85
2019-05-11T02:40:38.728Z,12.81
2019-05-11T02:41:38.746Z,12.85
2019-05-11T02:42:38.746Z,12.84
2019-05-11T02:43:38.750Z,12.82
2019-05-11T02:44:38.759Z,12.79
2019-05-11T02:45:38.762Z,12.84
2019-05-11T02:46:38.774Z,12.85
2019-05-11T02:47:38.827Z,12.81
2019-05-11T02:48:38.794Z,12.78
2019-05-11T02:49:38.798Z,12.88
2019-05-11T02:50:38.807Z,12.85
2019-05-11T02:51:38.823Z,12.88
2019-05-11T02:52:38.825Z,12.87
2019-05-11T02:53:38.826Z,12.87
2019-05-11T02:54:38.835Z,12.92
2019-05-11T02:55:38.846Z,12.96
2019-05-11T02:56:38.851Z,12.88
2019-05-11T02:57:38.863Z,12.93
2019-05-11T02:58:38.869Z,12.95
2019-05-11T02:59:38.875Z,13.00
2019-05-11T03:00:38.884Z,12.95
2019-05-11T03:01:38.892Z,13.00
2019-05-11T03:02:38.900Z,12.96
2019-05-11T03:03:38.914Z,12.88
2019-05-11T03:04:38.915Z,13.00
2019-05-11T03:05:38.926Z,12.95
2019-05-11T03:06:38.931Z,12.96
2019-05-11T03:07:38.938Z,12.97
2019-05-11T03:08:38.943Z,13.02
2019-05-11T03:09:38.966Z,12.96
2019-05-11T03:10:38.961Z,12.93
2019-05-11T03:11:53.964Z,12.97
2019-05-11T03:12:38.975Z,12.95
2019-05-11T03:13:38.983Z,12.93
2019-05-11T03:14:38.992Z,12.95
2019-05-11T03:15:38.998Z,12.99
2019-05-11T03:16:39.010Z,12.99
2019-05-11T03:17:39.014Z,12.99
2019-05-11T03:18:39.022Z,12.97
2019-05-11T03:19:39.029Z,12.99
2019-05-11T03:20:39.039Z,13.07
2019-05-11T03:21:39.046Z,13.02
2019-05-11T03:22:39.055Z,13.02
2019-05-11T03:23:39.060Z,13.02
2019-05-11T03:24:39.067Z,12.97
2019-05-11T03:25:39.078Z,13.09
2019-05-11T03:26:39.085Z,13.04
2019-05-11T03:27:39.093Z,13.09
2019-05-11T03:28:39.100Z,13.12
2019-05-11T03:29:39.102Z,13.11
2019-05-11T03:30:39.117Z,13.14
2019-05-11T03:31:39.314Z,13.12
2019-05-11T03:32:39.139Z,13.11
2019-05-11T03:33:39.141Z,13.20
2019-05-11T03:34:39.148Z,13.14
2019-05-11T03:35:39.151Z,13.17
2019-05-11T03:36:39.161Z,13.20
2019-05-11T03:37:39.172Z,13.11
2019-05-11T03:38:39.176Z,13.18
2019-05-11T03:39:39.187Z,13.15
2019-05-11T03:40:39.225Z,13.22
2019-05-11T03:41:39.209Z,13.22
2019-05-11T03:42:39.209Z,13.21
2019-05-11T03:43:39.214Z,13.21
2019-05-11T03:44:39.226Z,13.24
2019-05-11T03:45:39.233Z,13.21
2019-05-11T03:46:39.242Z,13.29
2019-05-11T03:47:39.249Z,13.18
2019-05-11T03:48:39.258Z,13.37
2019-05-11T03:49:39.263Z,13.36
2019-05-11T03:50:39.265Z,13.43
2019-05-11T03:51:39.278Z,13.41
2019-05-11T03:52:39.289Z,13.29
2019-05-11T03:53:39.297Z,13.29
2019-05-11T03:54:39.299Z,13.29
2019-05-11T03:55:39.305Z,13.33
2019-05-11T03:56:39.317Z,13.46
2019-05-11T03:57:39.336Z,13.36
2019-05-11T03:58:39.332Z,13.37
2019-05-11T03:59:39.342Z,13.47
2019-05-11T04:00:39.352Z,13.41
2019-05-11T04:01:39.357Z,13.44
2019-05-11T04:02:39.362Z,13.41
2019-05-11T04:03:39.374Z,13.47
2019-05-11T04:04:39.396Z,13.40
2019-05-11T04:05:39.392Z,13.44
2019-05-11T04:06:39.398Z,13.46
2019-05-11T04:07:39.398Z,13.49
2019-05-11T04:08:39.414Z,13.49
2019-05-11T04:09:39.427Z,13.51
2019-05-11T04:10:39.423Z,13.55
2019-05-11T04:11:39.434Z,13.49
2019-05-11T04:12:39.444Z,13.54
2019-05-11T04:13:39.451Z,13.47
2019-05-11T04:14:39.467Z,13.55
2019-05-11T04:15:39.469Z,13.54
2019-05-11T04:16:46.653Z,13.52
2019-05-11T04:18:43.493Z,13.54
2019-05-11T04:19:43.495Z,13.59
2019-05-11T04:21:47.979Z,13.61
2019-05-11T04:22:47.981Z,13.62
2019-05-11T04:23:47.994Z,13.65
2019-05-11T04:24:47.985Z,13.71
2019-05-11T04:25:47.995Z,13.69
2019-05-11T04:26:48.010Z,13.67
2019-05-11T04:27:48.009Z,13.70
2019-05-11T04:28:48.024Z,13.76
2019-05-11T04:29:48.023Z,13.76
2019-05-11T04:30:48.037Z,13.69
2019-05-11T04:31:48.040Z,13.71
2019-05-11T04:32:48.049Z,13.71
2019-05-11T04:33:48.061Z,13.69
2019-05-11T04:34:48.066Z,13.73
2019-05-11T04:35:48.072Z,13.77
2019-05-11T04:36:48.083Z,13.76
2019-05-11T04:37:48.087Z,13.81
2019-05-11T04:38:48.098Z,13.79
2019-05-11T04:39:48.101Z,13.79
2019-05-11T04:40:48.112Z,13.73
2019-05-11T04:41:48.122Z,13.81
2019-05-11T04:42:54.798Z,13.79
2019-05-11T04:43:48.145Z,13.81
2019-05-11T04:44:52.126Z,13.87
2019-05-11T04:45:48.151Z,13.76
2019-05-11T04:46:48.158Z,13.76
2019-05-11T04:47:48.243Z,13.77
2019-05-11T04:48:48.174Z,13.84
2019-05-11T04:49:48.182Z,13.87
2019-05-11T04:50:48.195Z,13.76
2019-05-11T04:51:48.199Z,13.83
2019-05-11T04:52:48.205Z,13.91
2019-05-11T04:53:48.214Z,13.91
2019-05-11T04:54:48.226Z,13.99
2019-05-11T04:55:48.233Z,14.02
2019-05-11T04:56:48.235Z,13.98
2019-05-11T04:57:48.251Z,14.04
2019-05-11T04:58:48.255Z,14.01
2019-05-11T04:59:48.261Z,13.99
2019-05-11T05:00:48.270Z,14.12
2019-05-11T05:01:48.281Z,14.16
2019-05-11T05:02:48.282Z,14.20
2019-05-11T05:03:54.128Z,14.24
2019-05-11T05:04:48.300Z,14.28
2019-05-11T05:05:48.313Z,14.28
2019-05-11T05:06:59.386Z,14.32
2019-05-11T05:07:50.509Z,14.25
2019-05-11T05:08:48.333Z,14.27
2019-05-11T05:09:48.340Z,14.21
2019-05-11T05:10:52.310Z,14.29
2019-05-11T05:11:48.355Z,14.29
2019-05-11T05:12:51.360Z,14.32
2019-05-11T05:13:48.373Z,14.42
2019-05-11T05:14:48.380Z,14.32
2019-05-11T05:15:48.387Z,14.39
2019-05-11T05:16:48.396Z,14.46
2019-05-11T05:17:48.403Z,14.53
2019-05-11T05:18:48.412Z,14.46
2019-05-11T05:19:48.423Z,14.47
2019-05-11T05:20:48.431Z,14.44
2019-05-11T05:21:48.438Z,14.53
2019-05-11T05:22:48.448Z,14.61
2019-05-11T05:23:48.452Z,14.60
2019-05-11T05:24:48.460Z,14.64
2019-05-11T05:25:48.471Z,14.68
2019-05-11T05:26:48.478Z,14.72
2019-05-11T05:27:48.549Z,14.65
2019-05-11T05:28:48.494Z,14.74
2019-05-11T05:29:48.508Z,14.69
2019-05-11T05:30:48.510Z,14.74
2019-05-11T05:31:48.517Z,14.74
2019-05-11T05:32:48.527Z,14.69
2019-05-11T05:33:48.538Z,14.74
2019-05-11T05:34:48.543Z,14.75
2019-05-11T05:35:48.550Z,14.83
2019-05-11T05:36:48.566Z,14.74
2019-05-11T05:37:48.565Z,14.78
2019-05-11T05:38:48.574Z,14.72
2019-05-11T05:39:48.583Z,14.81
2019-05-11T05:40:48.593Z,14.71
2019-05-11T05:41:56.449Z,14.74
2019-05-11T05:42:48.614Z,14.83
2019-05-11T05:43:48.614Z,14.86
2019-05-11T05:44:48.640Z,14.86
2019-05-11T05:45:48.630Z,14.90
2019-05-11T05:46:48.644Z,14.90
2019-05-11T05:47:48.653Z,14.87
2019-05-11T05:48:48.655Z,14.94
2019-05-11T05:49:48.658Z,14.91
2019-05-11T05:50:48.673Z,14.78
2019-05-11T05:51:48.681Z,14.80
2019-05-11T05:52:48.687Z,14.86
2019-05-11T05:53:48.697Z,14.83
2019-05-11T05:54:48.711Z,14.83
2019-05-11T05:55:48.713Z,14.78
2019-05-11T05:56:48.722Z,14.88
2019-05-11T05:57:48.733Z,14.84
2019-05-11T05:58:48.738Z,14.72
2019-05-11T05:59:48.748Z,14.83
2019-05-11T06:00:48.754Z,14.75
2019-05-11T06:01:48.764Z,14.78
2019-05-11T06:02:48.772Z,14.72
2019-05-11T06:03:48.776Z,14.72
2019-05-11T06:04:48.786Z,14.84
2019-05-11T06:05:48.794Z,14.87
2019-05-11T06:06:48.804Z,14.84
2019-05-11T06:07:48.811Z,14.91
2019-05-11T06:08:48.817Z,14.83
2019-05-11T06:09:48.824Z,14.93
2019-05-11T06:10:48.838Z,15.02
2019-05-11T06:11:48.841Z,14.90
2019-05-11T06:12:48.854Z,14.99
2019-05-11T06:13:48.860Z,14.91
2019-05-11T06:14:48.863Z,14.94
2019-05-11T06:15:48.875Z,15.05
2019-05-11T06:16:48.883Z,14.88
2019-05-11T06:17:48.890Z,15.03
2019-05-11T06:18:48.901Z,14.98
2019-05-11T06:19:48.907Z,15.13
2019-05-11T06:20:48.915Z,15.15
2019-05-11T06:21:48.926Z,15.09
2019-05-11T06:22:48.934Z,15.11
2019-05-11T06:23:48.936Z,15.26
2019-05-11T06:24:48.952Z,15.20
2019-05-11T06:25:48.961Z,15.23
2019-05-11T06:26:48.966Z,15.23
2019-05-11T06:27:48.970Z,15.35
2019-05-11T06:28:48.982Z,15.36
2019-05-11T06:29:48.986Z,15.39
2019-05-11T06:30:48.995Z,15.49
2019-05-11T06:31:49.005Z,15.52
2019-05-11T06:32:49.014Z,15.54
2019-05-11T06:33:49.021Z,15.57
2019-05-11T06:34:49.032Z,15.54
2019-05-11T06:35:49.039Z,15.66
2019-05-11T06:36:49.043Z,15.57
2019-05-11T06:37:49.057Z,15.61
2019-05-11T06:38:49.066Z,15.60
2019-05-11T06:39:49.071Z,15.70
2019-05-11T06:40:49.079Z,15.64
2019-05-11T06:41:49.090Z,15.76
2019-05-11T06:42:49.099Z,15.81
2019-05-11T06:44:01.234Z,15.86
2019-05-11T06:44:49.107Z,15.82
2019-05-11T06:45:49.122Z,15.94
2019-05-11T06:46:49.130Z,15.88
2019-05-11T06:47:49.163Z,16.01
2019-05-11T06:48:49.154Z,16.09
2019-05-11T06:49:49.152Z,16.00
2019-05-11T06:50:49.259Z,16.14
2019-05-11T06:51:49.184Z,16.15
2019-05-11T06:52:49.187Z,16.14
2019-05-11T06:53:49.190Z,16.31
2019-05-11T06:54:49.192Z,16.26
2019-05-11T06:55:49.207Z,16.25
2019-05-11T06:56:49.216Z,16.34
2019-05-11T06:57:49.222Z,16.35
2019-05-11T06:58:49.229Z,16.25
2019-05-11T06:59:49.256Z,16.18
2019-05-11T07:00:49.250Z,16.18
2019-05-11T07:01:49.264Z,16.16
2019-05-11T07:02:49.274Z,16.14
2019-05-11T07:03:49.275Z,16.12
2019-05-11T07:04:49.289Z,16.20
2019-05-11T07:05:49.296Z,16.22
2019-05-11T07:06:49.315Z,16.18
2019-05-11T07:07:49.313Z,16.20
2019-05-11T07:08:49.328Z,16.31
2019-05-11T07:09:49.326Z,16.41
2019-05-11T07:10:49.340Z,16.50
2019-05-11T07:11:49.404Z,16.45
2019-05-11T07:12:49.356Z,16.41
2019-05-11T07:13:49.361Z,16.35
2019-05-11T07:14:49.371Z,16.38
2019-05-11T07:15:49.381Z,16.30
2019-05-11T07:16:49.394Z,16.22
2019-05-11T07:17:49.397Z,16.34
2019-05-11T07:18:49.406Z,16.33
2019-05-11T07:19:49.426Z,16.37
2019-05-11T07:20:50.961Z,16.26
2019-05-11T07:21:49.428Z,16.30
2019-05-11T07:22:49.445Z,16.26
2019-05-11T07:23:49.444Z,16.40
2019-05-11T07:24:49.461Z,16.38
2019-05-11T07:25:49.472Z,16.49
2019-05-11T07:26:49.480Z,16.41
2019-05-11T07:27:49.485Z,16.42
2019-05-11T07:28:49.496Z,16.52
2019-05-11T07:29:49.505Z,16.50
2019-05-11T07:30:49.513Z,16.74
2019-05-11T07:31:49.517Z,16.81
2019-05-11T07:32:49.532Z,16.71
2019-05-11T07:33:49.541Z,16.70
2019-05-11T07:34:49.550Z,16.78
2019-05-11T07:35:49.560Z,16.88
2019-05-11T07:36:49.564Z,17.10
2019-05-11T07:37:49.575Z,17.03
2019-05-11T07:38:49.584Z,17.00
2019-05-11T07:39:49.598Z,17.08
2019-05-11T07:40:49.601Z,17.14
2019-05-11T07:41:49.616Z,17.04
2019-05-11T07:42:49.628Z,17.14
2019-05-11T07:43:49.631Z,17.04
2019-05-11T07:44:49.639Z,17.13
2019-05-11T07:45:49.643Z,17.22
2019-05-11T07:46:49.655Z,17.15
2019-05-11T07:47:49.663Z,16.95
2019-05-11T07:48:49.674Z,17.10
2019-05-11T07:49:49.681Z,17.00
2019-05-11T07:50:49.691Z,16.95
2019-05-11T07:51:49.703Z,16.83
2019-05-11T07:52:49.710Z,16.90
2019-05-11T07:53:49.725Z,16.88
2019-05-11T07:54:52.856Z,16.85
2019-05-11T07:55:49.752Z,16.81
2019-05-11T07:56:49.748Z,16.89
2019-05-11T07:57:49.757Z,16.78
2019-05-11T07:58:49.767Z,16.78
2019-05-11T07:59:49.771Z,16.80
2019-05-11T08:00:49.786Z,16.75
2019-05-11T08:01:49.804Z,16.65
2019-05-11T08:02:49.801Z,16.73
2019-05-11T08:03:49.803Z,16.75
2019-05-11T08:04:49.821Z,16.71
2019-05-11T08:05:49.829Z,16.74
2019-05-11T08:06:49.839Z,16.75
2019-05-11T08:07:49.846Z,16.67
2019-05-11T08:08:49.858Z,16.73
2019-05-11T08:09:49.869Z,16.75
2019-05-11T08:10:49.875Z,16.85
2019-05-11T08:11:49.876Z,16.85
2019-05-11T08:12:49.887Z,16.96
2019-05-11T08:13:49.897Z,17.06
2019-05-11T08:14:58.822Z,17.20
2019-05-11T08:15:49.918Z,17.23
2019-05-11T08:16:49.928Z,17.13
2019-05-11T08:17:49.938Z,17.17
2019-05-11T08:18:49.950Z,17.08
2019-05-11T08:19:49.953Z,17.06
2019-05-11T08:20:49.970Z,16.90
2019-05-11T08:21:49.978Z,16.96
2019-05-11T08:22:49.982Z,16.86
2019-05-11T08:23:49.990Z,16.93
2019-05-11T08:24:50.002Z,16.96
2019-05-11T08:25:50.010Z,17.04
2019-05-11T08:26:50.021Z,16.98
2019-05-11T08:27:50.032Z,16.90
2019-05-11T08:28:50.037Z,16.85
2019-05-11T08:29:50.049Z,16.81
2019-05-11T08:30:50.056Z,16.85
2019-05-11T08:31:50.071Z,16.86
2019-05-11T08:32:50.081Z,16.95
2019-05-11T08:33:50.084Z,17.04
2019-05-11T08:34:50.093Z,17.04
2019-05-11T08:35:50.108Z,16.95
2019-05-11T08:36:50.111Z,16.89
2019-05-11T08:37:50.120Z,16.85
2019-05-11T08:38:50.132Z,16.85
2019-05-11T08:39:50.136Z,16.81
2019-05-11T08:40:50.148Z,16.77
2019-05-11T08:41:50.156Z,16.73
2019-05-11T08:42:50.165Z,16.88
2019-05-11T08:43:50.177Z,16.67
2019-05-11T08:44:50.189Z,16.60
2019-05-11T08:45:50.196Z,16.73
2019-05-11T08:46:50.203Z,16.83
2019-05-11T08:47:50.209Z,16.88
2019-05-11T08:48:50.234Z,17.03
2019-05-11T08:49:50.233Z,17.07
2019-05-11T08:50:50.242Z,17.18
2019-05-11T08:51:50.249Z,17.11
2019-05-11T08:52:50.256Z,17.14
2019-05-11T08:53:50.267Z,17.26
2019-05-11T08:54:50.289Z,17.22
2019-05-11T08:55:50.288Z,17.30
2019-05-11T08:56:50.301Z,17.36
2019-05-11T08:57:50.314Z,17.35
2019-05-11T08:58:50.317Z,17.33
2019-05-11T08:59:50.320Z,17.33
2019-05-11T09:00:50.330Z,17.38
2019-05-11T09:01:50.341Z,17.30
2019-05-11T09:02:51.063Z,17.28
2019-05-11T09:03:50.359Z,17.28
2019-05-11T09:04:50.367Z,17.23
2019-05-11T09:05:50.381Z,17.18
2019-05-11T09:06:50.388Z,17.15
2019-05-11T09:07:50.400Z,17.15
2019-05-11T09:08:50.403Z,17.18
2019-05-11T09:09:50.423Z,16.99
2019-05-11T09:10:50.531Z,17.22
2019-05-11T09:11:50.538Z,17.04
2019-05-11T09:12:50.448Z,17.26
2019-05-11T09:13:50.454Z,17.17
2019-05-11T09:14:50.461Z,17.17
2019-05-11T09:15:50.465Z,17.20
2019-05-11T09:16:50.482Z,17.17
2019-05-11T09:17:50.491Z,17.25
2019-05-11T09:18:50.505Z,17.18
2019-05-11T09:19:50.514Z,17.28
2019-05-11T09:20:50.520Z,17.50
2019-05-11T09:21:50.528Z,17.53
2019-05-11T09:22:50.643Z,17.41
2019-05-11T09:23:50.545Z,17.35
2019-05-11T09:24:50.557Z,17.63
2019-05-11T09:25:50.574Z,17.66
2019-05-11T09:26:50.573Z,17.81
2019-05-11T09:27:50.584Z,17.69
2019-05-11T09:28:50.592Z,17.57
2019-05-11T09:29:50.600Z,17.71
2019-05-11T09:30:50.609Z,17.74
2019-05-11T09:31:50.620Z,17.85
2019-05-11T09:32:50.736Z,17.69
2019-05-11T09:33:50.643Z,17.74
2019-05-11T09:34:50.680Z,17.73
2019-05-11T09:35:53.544Z,17.76
2019-05-11T09:36:50.775Z,17.70
2019-05-11T09:37:50.779Z,17.81
2019-05-11T09:38:50.687Z,17.85
2019-05-11T09:39:50.702Z,17.78
2019-05-11T09:40:50.818Z,17.95
2019-05-11T09:41:50.720Z,17.87
2019-05-11T09:42:50.730Z,17.82
2019-05-11T09:43:50.736Z,17.71
2019-05-11T09:44:50.749Z,17.79
2019-05-11T09:45:51.966Z,17.79
2019-05-11T09:46:50.777Z,17.76
2019-05-11T09:47:50.776Z,17.87
2019-05-11T09:48:50.780Z,17.84
2019-05-11T09:49:51.177Z,17.87
2019-05-11T09:50:50.806Z,17.84
2019-05-11T09:51:50.815Z,17.87
2019-05-11T09:52:50.925Z,17.85
2019-05-11T09:53:50.842Z,17.89
2019-05-11T09:54:50.840Z,17.85
2019-05-11T09:55:50.851Z,17.99
2019-05-11T09:56:50.867Z,18.12
2019-05-11T09:57:50.875Z,18.27
2019-05-11T09:58:50.883Z,18.22
2019-05-11T09:59:50.892Z,18.36
2019-05-11T10:00:50.904Z,18.33
2019-05-11T10:01:50.915Z,18.25
2019-05-11T10:02:51.030Z,18.18
2019-05-11T10:03:50.933Z,18.12
2019-05-11T10:04:50.940Z,18.25
2019-05-11T10:05:50.952Z,18.04
2019-05-11T10:06:50.960Z,18.12
2019-05-11T10:07:50.965Z,18.22
2019-05-11T10:08:50.980Z,18.24
2019-05-11T10:09:50.994Z,18.07
2019-05-11T10:10:51.003Z,17.95
2019-05-11T10:11:51.010Z,17.88
2019-05-11T10:12:52.982Z,18.04
2019-05-11T10:13:51.033Z,18.17
2019-05-11T10:14:51.041Z,18.12
2019-05-11T10:16:03.759Z,18.29
2019-05-11T10:16:51.061Z,18.36
2019-05-11T10:17:51.073Z,18.40
2019-05-11T10:18:51.084Z,18.44
2019-05-11T10:19:51.272Z,18.36
2019-05-11T10:20:51.122Z,18.44
2019-05-11T10:21:51.113Z,18.36
2019-05-11T10:22:51.121Z,18.46
2019-05-11T10:23:51.130Z,18.68
2019-05-11T10:24:51.137Z,18.64
2019-05-11T10:25:51.149Z,18.64
2019-05-11T10:26:51.161Z,18.58
2019-05-11T10:27:51.174Z,18.62
2019-05-11T10:28:51.179Z,18.70
2019-05-11T10:29:51.191Z,18.73
2019-05-11T10:30:51.199Z,18.59
2019-05-11T10:31:51.206Z,18.49
2019-05-11T10:32:51.217Z,18.31
2019-05-11T10:33:51.235Z,18.27
2019-05-11T10:34:51.244Z,18.13
2019-05-11T10:35:51.254Z,18.15
2019-05-11T10:36:51.261Z,17.94
2019-05-11T10:37:51.270Z,18.07
2019-05-11T10:38:51.281Z,18.07
2019-05-11T10:39:51.286Z,18.04
2019-05-11T10:40:51.305Z,18.02
2019-05-11T10:41:51.313Z,17.97
2019-05-11T10:42:51.323Z,17.89
2019-05-11T10:43:51.332Z,17.76
2019-05-11T10:44:51.343Z,17.73
2019-05-11T10:45:51.350Z,17.62
2019-05-11T10:46:51.359Z,17.55
2019-05-11T10:47:53.938Z,17.44
2019-05-11T10:48:51.377Z,17.48
2019-05-11T10:49:51.392Z,17.43
2019-05-11T10:50:51.402Z,17.48
2019-05-11T10:51:51.408Z,17.36
2019-05-11T10:52:51.416Z,17.35
2019-05-11T10:53:52.190Z,17.48
2019-05-11T10:54:51.449Z,17.43
2019-05-11T10:55:51.449Z,17.62
2019-05-11T10:56:51.457Z,17.81
2019-05-11T10:57:51.471Z,17.87
2019-05-11T10:58:51.477Z,17.89
2019-05-11T10:59:51.487Z,17.82
2019-05-11T11:00:51.499Z,17.48
2019-05-11T11:01:51.506Z,17.48
2019-05-11T11:02:51.515Z,17.33
2019-05-11T11:03:51.520Z,17.28
2019-05-11T11:04:51.536Z,17.20
2019-05-11T11:05:51.549Z,17.25
2019-05-11T11:06:51.560Z,17.17
2019-05-11T11:07:51.568Z,17.18
2019-05-11T11:08:51.576Z,17.23
2019-05-11T11:09:51.580Z,17.50
2019-05-11T11:10:51.588Z,17.53
2019-05-11T11:11:51.604Z,17.64
2019-05-11T11:12:51.622Z,17.78
2019-05-11T11:13:51.623Z,17.82
2019-05-11T11:14:51.629Z,17.79
2019-05-11T11:15:51.647Z,17.79
2019-05-11T11:16:51.651Z,17.78
2019-05-11T11:17:51.659Z,17.51
2019-05-11T11:18:51.667Z,17.63
2019-05-11T11:19:51.681Z,17.57
2019-05-11T11:20:51.687Z,17.54
2019-05-11T11:21:51.697Z,17.38
2019-05-11T11:22:51.709Z,17.26
2019-05-11T11:23:51.715Z,17.22
2019-05-11T11:24:51.830Z,17.22
2019-05-11T11:25:51.737Z,17.20
2019-05-11T11:26:51.747Z,17.15
2019-05-11T11:27:51.755Z,17.00
2019-05-11T11:28:51.763Z,16.93
2019-05-11T11:29:51.774Z,16.85
2019-05-11T11:30:51.787Z,16.81
2019-05-11T11:31:51.791Z,16.59
2019-05-11T11:32:51.796Z,16.52
2019-05-11T11:33:51.811Z,16.56
2019-05-11T11:34:51.820Z,16.62
2019-05-11T11:35:51.831Z,16.53
2019-05-11T11:36:51.839Z,16.50
2019-05-11T11:37:51.850Z,16.45
2019-05-11T11:38:51.861Z,16.49
2019-05-11T11:39:51.867Z,16.41
2019-05-11T11:40:51.877Z,16.38
2019-05-11T11:41:51.887Z,16.48
2019-05-11T11:42:51.897Z,16.55
2019-05-11T11:43:51.905Z,16.50
2019-05-11T11:44:51.913Z,16.50
2019-05-11T11:45:51.920Z,16.49
2019-05-11T11:46:55.140Z,16.49
2019-05-11T11:47:51.941Z,16.42
2019-05-11T11:48:51.948Z,16.52
2019-05-11T11:49:51.966Z,16.37
2019-05-11T11:50:51.970Z,16.37
2019-05-11T11:51:51.977Z,16.56
2019-05-11T11:52:51.985Z,16.52
2019-05-11T11:53:51.996Z,16.62
2019-05-11T11:54:52.015Z,16.50
2019-05-11T11:55:52.011Z,16.53
2019-05-11T11:56:52.021Z,16.68
2019-05-11T11:57:52.032Z,16.48
2019-05-11T11:58:52.045Z,16.56
2019-05-11T11:59:52.050Z,16.52
2019-05-11T12:00:52.060Z,16.65
2019-05-11T12:01:52.068Z,16.74
2019-05-11T12:02:52.082Z,16.85
2019-05-11T12:03:52.086Z,16.88
2019-05-11T12:04:52.099Z,16.98
2019-05-11T12:05:52.104Z,17.04
2019-05-11T12:06:52.115Z,17.17
2019-05-11T12:07:52.125Z,17.14
2019-05-11T12:08:52.130Z,17.14
2019-05-11T12:09:52.138Z,17.03
2019-05-11T12:10:52.152Z,17.06
2019-05-11T12:11:52.159Z,17.22
2019-05-11T12:12:52.269Z,17.22
2019-05-11T12:13:52.178Z,17.15
2019-05-11T12:14:52.288Z,17.13
2019-05-11T12:15:52.196Z,17.18
2019-05-11T12:17:04.090Z,17.22
2019-05-11T12:17:52.216Z,17.35
2019-05-11T12:18:52.228Z,17.41
2019-05-11T12:19:52.235Z,17.51
2019-05-11T12:20:52.242Z,17.47
2019-05-11T12:21:52.256Z,17.33
2019-05-11T12:22:52.263Z,17.47
2019-05-11T12:23:52.272Z,17.53
2019-05-11T12:24:52.283Z,17.51
2019-05-11T12:25:52.289Z,17.47
2019-05-11T12:26:52.301Z,17.55
2019-05-11T12:27:52.308Z,17.70
2019-05-11T12:28:52.317Z,17.94
2019-05-11T12:29:52.335Z,17.95
2019-05-11T12:30:52.339Z,18.06
2019-05-11T12:31:52.345Z,18.13
2019-05-11T12:32:52.354Z,18.29
2019-05-11T12:33:52.366Z,18.61
2019-05-11T12:34:52.378Z,19.14
2019-05-11T12:35:52.384Z,19.36
2019-05-11T12:36:52.396Z,19.93
2019-05-11T12:37:52.410Z,20.47
2019-05-11T12:38:52.415Z,20.51
2019-05-11T12:39:52.432Z,20.03
2019-05-11T12:40:52.439Z,19.93
2019-05-11T12:41:52.454Z,19.78
2019-05-11T12:42:52.461Z,19.54
2019-05-11T12:43:52.471Z,19.29
2019-05-11T12:44:52.481Z,19.15
2019-05-11T12:45:52.491Z,19.14
2019-05-11T12:46:52.503Z,18.98
2019-05-11T12:47:52.522Z,18.92
2019-05-11T12:48:52.525Z,18.65
2019-05-11T12:49:52.533Z,18.24
2019-05-11T12:50:52.544Z,18.09
2019-05-11T12:51:52.555Z,17.87
2019-05-11T12:52:52.569Z,17.87
2019-05-11T12:53:52.578Z,17.82
2019-05-11T12:54:52.592Z,17.64